sensor_id;sensor_type;location;lat;lon;timestamp;temperature;humidity
22450;DHT22;11392;57.390;-2.468;2023-12-28T00:02:20;4.50;99.90
22450;DHT22;11392;57.390;-2.468;2023-12-28T00:04:47;4.50;99.90
22450;DHT22;11392;57.390;-2.468;2023-12-28T00:07:14;4.50;99.90
22450;DHT22;11392;57.390;-2.468;2023-12-28T00:09:41;4.50;99.90
22450;DHT22;11392;57.390;-2.468;2023-12-28T00:12:08;4.60;99.90
22450;DHT22;11392;57.390;-2.468;2023-12-28T00:14:35;4.50;99.90
22450;DHT22;11392;57.390;-2.468;2023-12-28T00:17:02;4.40;99.90
22450;DHT22;11392;57.390;-2.468;2023-12-28T00:19:29;4.40;99.90
22450;DHT22;11392;57.390;-2.468;2023-12-28T00:21:57;4.40;99.90
22450;DHT22;11392;57.390;-2.468;2023-12-28T00:24:24;4.30;99.90
22450;DHT22;11392;57.390;-2.468;2023-12-28T00:26:51;4.40;99.90
22450;DHT22;11392;57.390;-2.468;2023-12-28T00:29:18;4.40;99.90
22450;DHT22;11392;57.390;-2.468;2023-12-28T00:31:45;4.40;99.90
22450;DHT22;11392;57.390;-2.468;2023-12-28T00:34:12;4.40;99.90
22450;DHT22;11392;57.390;-2.468;2023-12-28T00:36:39;4.30;99.90
22450;DHT22;11392;57.390;-2.468;2023-12-28T00:39:07;4.30;99.90
22450;DHT22;11392;57.390;-2.468;2023-12-28T00:41:35;4.30;99.90
22450;DHT22;11392;57.390;-2.468;2023-12-28T00:44:02;4.30;99.90
22450;DHT22;11392;57.390;-2.468;2023-12-28T00:46:29;4.30;99.90
22450;DHT22;11392;57.390;-2.468;2023-12-28T00:48:56;4.30;99.90
22450;DHT22;11392;57.390;-2.468;2023-12-28T00:51:23;4.30;99.90
22450;DHT22;11392;57.390;-2.468;2023-12-28T00:53:51;4.30;99.90
22450;DHT22;11392;57.390;-2.468;2023-12-28T00:56:18;4.20;99.90
22450;DHT22;11392;57.390;-2.468;2023-12-28T00:58:48;4.20;99.90
22450;DHT22;11392;57.390;-2.468;2023-12-28T01:01:15;4.20;99.90
22450;DHT22;11392;57.390;-2.468;2023-12-28T01:03:43;4.20;99.90
22450;DHT22;11392;57.390;-2.468;2023-12-28T01:06:10;4.30;99.90
22450;DHT22;11392;57.390;-2.468;2023-12-28T01:08:37;4.30;99.90
22450;DHT22;11392;57.390;-2.468;2023-12-28T01:11:04;4.30;99.90
22450;DHT22;11392;57.390;-2.468;2023-12-28T01:13:32;4.30;99.90
22450;DHT22;11392;57.390;-2.468;2023-12-28T01:15:59;4.30;99.90
22450;DHT22;11392;57.390;-2.468;2023-12-28T01:18:26;4.20;99.90
22450;DHT22;11392;57.390;-2.468;2023-12-28T01:20:53;4.30;99.90
22450;DHT22;11392;57.390;-2.468;2023-12-28T01:23:20;4.20;99.90
22450;DHT22;11392;57.390;-2.468;2023-12-28T01:25:47;4.30;99.90
22450;DHT22;11392;57.390;-2.468;2023-12-28T01:28:14;4.30;99.90
22450;DHT22;11392;57.390;-2.468;2023-12-28T01:30:45;4.30;99.90
22450;DHT22;11392;57.390;-2.468;2023-12-28T01:33:12;4.40;99.90
22450;DHT22;11392;57.390;-2.468;2023-12-28T01:35:39;4.40;99.90
22450;DHT22;11392;57.390;-2.468;2023-12-28T01:38:06;4.30;99.90
22450;DHT22;11392;57.390;-2.468;2023-12-28T01:40:33;4.40;99.90
22450;DHT22;11392;57.390;-2.468;2023-12-28T01:43:00;4.40;99.90
22450;DHT22;11392;57.390;-2.468;2023-12-28T01:45:27;4.40;99.90
22450;DHT22;11392;57.390;-2.468;2023-12-28T01:47:57;4.30;99.90
22450;DHT22;11392;57.390;-2.468;2023-12-28T01:50:26;4.40;99.90
22450;DHT22;11392;57.390;-2.468;2023-12-28T01:52:55;4.30;99.90
22450;DHT22;11392;57.390;-2.468;2023-12-28T01:55:24;4.40;99.90
22450;DHT22;11392;57.390;-2.468;2023-12-28T01:57:53;4.40;99.90
22450;DHT22;11392;57.390;-2.468;2023-12-28T02:00:22;4.30;99.90
22450;DHT22;11392;57.390;-2.468;2023-12-28T02:02:50;4.20;99.90
22450;DHT22;11392;57.390;-2.468;2023-12-28T02:05:21;4.20;99.90
22450;DHT22;11392;57.390;-2.468;2023-12-28T02:07:48;4.30;99.90
22450;DHT22;11392;57.390;-2.468;2023-12-28T02:10:15;4.30;99.90
22450;DHT22;11392;57.390;-2.468;2023-12-28T02:12:43;4.20;99.90
22450;DHT22;11392;57.390;-2.468;2023-12-28T02:15:10;4.20;99.90
22450;DHT22;11392;57.390;-2.468;2023-12-28T02:17:47;4.20;99.90
22450;DHT22;11392;57.390;-2.468;2023-12-28T02:20:15;4.30;99.90
22450;DHT22;11392;57.390;-2.468;2023-12-28T02:22:43;4.30;99.90
22450;DHT22;11392;57.390;-2.468;2023-12-28T02:25:11;4.30;99.90
22450;DHT22;11392;57.390;-2.468;2023-12-28T02:27:44;4.20;99.90
22450;DHT22;11392;57.390;-2.468;2023-12-28T02:30:18;4.20;99.90
22450;DHT22;11392;57.390;-2.468;2023-12-28T02:33:48;4.20;99.90
22450;DHT22;11392;57.390;-2.468;2023-12-28T02:36:01;4.20;99.90
22450;DHT22;11392;57.390;-2.468;2023-12-28T02:38:30;4.30;99.90
22450;DHT22;11392;57.390;-2.468;2023-12-28T02:40:58;4.30;99.90
22450;DHT22;11392;57.390;-2.468;2023-12-28T02:43:26;4.30;99.90
22450;DHT22;11392;57.390;-2.468;2023-12-28T02:45:53;4.30;99.90
22450;DHT22;11392;57.390;-2.468;2023-12-28T02:48:21;4.30;99.90
22450;DHT22;11392;57.390;-2.468;2023-12-28T02:50:48;4.30;99.90
22450;DHT22;11392;57.390;-2.468;2023-12-28T02:53:15;4.40;99.90
22450;DHT22;11392;57.390;-2.468;2023-12-28T02:55:42;4.40;99.90
22450;DHT22;11392;57.390;-2.468;2023-12-28T02:58:10;4.40;99.90
22450;DHT22;11392;57.390;-2.468;2023-12-28T03:00:37;4.30;99.90
22450;DHT22;11392;57.390;-2.468;2023-12-28T03:03:04;4.30;99.90
22450;DHT22;11392;57.390;-2.468;2023-12-28T03:05:31;4.30;99.90
22450;DHT22;11392;57.390;-2.468;2023-12-28T03:07:58;4.20;99.90
22450;DHT22;11392;57.390;-2.468;2023-12-28T03:10:26;4.30;99.90
22450;DHT22;11392;57.390;-2.468;2023-12-28T03:12:53;4.40;99.90
22450;DHT22;11392;57.390;-2.468;2023-12-28T03:15:20;4.40;99.90
22450;DHT22;11392;57.390;-2.468;2023-12-28T03:17:48;4.40;99.90
22450;DHT22;11392;57.390;-2.468;2023-12-28T03:20:15;4.50;99.90
22450;DHT22;11392;57.390;-2.468;2023-12-28T03:22:43;4.50;99.90
22450;DHT22;11392;57.390;-2.468;2023-12-28T03:25:10;4.50;99.90
22450;DHT22;11392;57.390;-2.468;2023-12-28T03:27:37;4.50;99.90
22450;DHT22;11392;57.390;-2.468;2023-12-28T03:30:05;4.40;99.90
22450;DHT22;11392;57.390;-2.468;2023-12-28T03:32:32;4.50;99.90
22450;DHT22;11392;57.390;-2.468;2023-12-28T03:34:59;4.50;99.90
22450;DHT22;11392;57.390;-2.468;2023-12-28T03:37:26;4.50;99.90
22450;DHT22;11392;57.390;-2.468;2023-12-28T03:39:53;4.50;99.90
22450;DHT22;11392;57.390;-2.468;2023-12-28T03:42:20;4.50;99.90
22450;DHT22;11392;57.390;-2.468;2023-12-28T03:44:49;4.50;99.90
22450;DHT22;11392;57.390;-2.468;2023-12-28T03:47:16;4.50;99.90
22450;DHT22;11392;57.390;-2.468;2023-12-28T03:49:43;4.50;99.90
22450;DHT22;11392;57.390;-2.468;2023-12-28T03:52:10;4.50;99.90
22450;DHT22;11392;57.390;-2.468;2023-12-28T03:54:39;4.40;99.90
22450;DHT22;11392;57.390;-2.468;2023-12-28T03:57:06;4.40;99.90
22450;DHT22;11392;57.390;-2.468;2023-12-28T03:59:34;4.50;99.90
22450;DHT22;11392;57.390;-2.468;2023-12-28T04:02:01;4.50;99.90
22450;DHT22;11392;57.390;-2.468;2023-12-28T04:04:28;4.50;99.90
22450;DHT22;11392;57.390;-2.468;2023-12-28T04:06:56;4.30;99.90
22450;DHT22;11392;57.390;-2.468;2023-12-28T04:09:23;4.30;99.90
22450;DHT22;11392;57.390;-2.468;2023-12-28T04:11:50;4.20;99.90
22450;DHT22;11392;57.390;-2.468;2023-12-28T04:14:18;4.20;99.90
22450;DHT22;11392;57.390;-2.468;2023-12-28T04:16:45;4.20;99.90
22450;DHT22;11392;57.390;-2.468;2023-12-28T04:19:13;4.20;99.90
22450;DHT22;11392;57.390;-2.468;2023-12-28T04:21:45;4.10;99.90
22450;DHT22;11392;57.390;-2.468;2023-12-28T04:24:12;4.10;99.90
22450;DHT22;11392;57.390;-2.468;2023-12-28T04:26:40;4.00;99.90
22450;DHT22;11392;57.390;-2.468;2023-12-28T04:29:07;4.00;99.90
22450;DHT22;11392;57.390;-2.468;2023-12-28T04:31:40;4.00;99.90
22450;DHT22;11392;57.390;-2.468;2023-12-28T04:34:09;3.90;99.90
22450;DHT22;11392;57.390;-2.468;2023-12-28T04:36:43;3.90;99.90
22450;DHT22;11392;57.390;-2.468;2023-12-28T04:39:12;4.00;99.90
22450;DHT22;11392;57.390;-2.468;2023-12-28T04:41:39;4.10;99.90
22450;DHT22;11392;57.390;-2.468;2023-12-28T04:44:06;4.10;99.90
22450;DHT22;11392;57.390;-2.468;2023-12-28T04:46:37;4.00;99.90
22450;DHT22;11392;57.390;-2.468;2023-12-28T04:49:06;4.00;99.90
22450;DHT22;11392;57.390;-2.468;2023-12-28T04:51:34;4.00;99.90
22450;DHT22;11392;57.390;-2.468;2023-12-28T04:54:01;3.90;99.90
22450;DHT22;11392;57.390;-2.468;2023-12-28T04:56:28;4.00;99.90
22450;DHT22;11392;57.390;-2.468;2023-12-28T04:58:55;3.90;99.90
22450;DHT22;11392;57.390;-2.468;2023-12-28T05:01:22;3.90;99.90
22450;DHT22;11392;57.390;-2.468;2023-12-28T05:03:49;4.00;99.90
22450;DHT22;11392;57.390;-2.468;2023-12-28T05:06:16;3.90;99.90
22450;DHT22;11392;57.390;-2.468;2023-12-28T05:08:43;3.70;99.90
22450;DHT22;11392;57.390;-2.468;2023-12-28T05:11:10;3.60;99.90
22450;DHT22;11392;57.390;-2.468;2023-12-28T05:13:37;3.60;99.90
22450;DHT22;11392;57.390;-2.468;2023-12-28T05:16:04;3.60;99.90
22450;DHT22;11392;57.390;-2.468;2023-12-28T05:18:32;3.60;99.90
22450;DHT22;11392;57.390;-2.468;2023-12-28T05:21:00;3.80;99.90
22450;DHT22;11392;57.390;-2.468;2023-12-28T05:23:27;3.70;99.90
22450;DHT22;11392;57.390;-2.468;2023-12-28T05:25:54;3.70;99.90
22450;DHT22;11392;57.390;-2.468;2023-12-28T05:28:21;3.70;99.90
22450;DHT22;11392;57.390;-2.468;2023-12-28T05:30:48;3.80;99.90
22450;DHT22;11392;57.390;-2.468;2023-12-28T05:33:15;3.80;99.90
22450;DHT22;11392;57.390;-2.468;2023-12-28T05:35:45;3.80;99.90
22450;DHT22;11392;57.390;-2.468;2023-12-28T05:38:12;3.80;99.90
22450;DHT22;11392;57.390;-2.468;2023-12-28T05:40:39;3.80;99.90
22450;DHT22;11392;57.390;-2.468;2023-12-28T05:43:06;3.80;99.90
22450;DHT22;11392;57.390;-2.468;2023-12-28T05:45:33;3.80;99.90
22450;DHT22;11392;57.390;-2.468;2023-12-28T05:48:00;3.70;99.90
22450;DHT22;11392;57.390;-2.468;2023-12-28T05:50:28;3.70;99.90
22450;DHT22;11392;57.390;-2.468;2023-12-28T05:52:55;3.70;99.90
22450;DHT22;11392;57.390;-2.468;2023-12-28T05:55:22;3.70;99.90
22450;DHT22;11392;57.390;-2.468;2023-12-28T05:57:49;3.70;99.90
22450;DHT22;11392;57.390;-2.468;2023-12-28T06:00:17;3.60;99.90
22450;DHT22;11392;57.390;-2.468;2023-12-28T06:02:44;3.60;99.90
22450;DHT22;11392;57.390;-2.468;2023-12-28T06:05:13;3.60;99.90
22450;DHT22;11392;57.390;-2.468;2023-12-28T06:07:40;3.50;99.90
22450;DHT22;11392;57.390;-2.468;2023-12-28T06:10:08;3.40;99.90
22450;DHT22;11392;57.390;-2.468;2023-12-28T06:12:35;3.40;99.90
22450;DHT22;11392;57.390;-2.468;2023-12-28T06:15:03;3.40;99.90
22450;DHT22;11392;57.390;-2.468;2023-12-28T06:17:31;3.30;99.90
22450;DHT22;11392;57.390;-2.468;2023-12-28T06:20:01;3.30;99.90
22450;DHT22;11392;57.390;-2.468;2023-12-28T06:22:29;3.30;99.90
22450;DHT22;11392;57.390;-2.468;2023-12-28T06:24:56;3.30;99.90
22450;DHT22;11392;57.390;-2.468;2023-12-28T06:27:23;3.30;99.90
22450;DHT22;11392;57.390;-2.468;2023-12-28T06:29:50;3.40;99.90
22450;DHT22;11392;57.390;-2.468;2023-12-28T06:32:17;3.30;99.90
22450;DHT22;11392;57.390;-2.468;2023-12-28T06:34:45;3.30;99.90
22450;DHT22;11392;57.390;-2.468;2023-12-28T06:37:13;3.30;99.90
22450;DHT22;11392;57.390;-2.468;2023-12-28T06:39:40;3.20;99.90
22450;DHT22;11392;57.390;-2.468;2023-12-28T06:42:07;3.20;99.90
22450;DHT22;11392;57.390;-2.468;2023-12-28T06:44:34;3.20;99.90
22450;DHT22;11392;57.390;-2.468;2023-12-28T06:47:01;3.30;99.90
22450;DHT22;11392;57.390;-2.468;2023-12-28T06:49:28;3.30;99.90
22450;DHT22;11392;57.390;-2.468;2023-12-28T06:51:55;3.40;99.90
22450;DHT22;11392;57.390;-2.468;2023-12-28T06:54:23;3.50;99.90
22450;DHT22;11392;57.390;-2.468;2023-12-28T06:56:51;3.60;99.90
22450;DHT22;11392;57.390;-2.468;2023-12-28T06:59:18;3.70;99.90
22450;DHT22;11392;57.390;-2.468;2023-12-28T07:01:45;3.70;99.90
22450;DHT22;11392;57.390;-2.468;2023-12-28T07:04:15;3.70;99.90
22450;DHT22;11392;57.390;-2.468;2023-12-28T07:06:42;3.80;99.90
22450;DHT22;11392;57.390;-2.468;2023-12-28T07:09:10;3.90;99.90
22450;DHT22;11392;57.390;-2.468;2023-12-28T07:11:37;4.00;99.90
22450;DHT22;11392;57.390;-2.468;2023-12-28T07:14:04;4.00;99.90
22450;DHT22;11392;57.390;-2.468;2023-12-28T07:16:31;4.00;99.90
22450;DHT22;11392;57.390;-2.468;2023-12-28T07:18:58;4.00;99.90
22450;DHT22;11392;57.390;-2.468;2023-12-28T07:21:25;4.00;99.90
22450;DHT22;11392;57.390;-2.468;2023-12-28T07:23:52;4.00;99.90
22450;DHT22;11392;57.390;-2.468;2023-12-28T07:26:19;3.90;99.90
22450;DHT22;11392;57.390;-2.468;2023-12-28T07:28:47;3.90;99.90
22450;DHT22;11392;57.390;-2.468;2023-12-28T07:31:25;3.80;99.90
22450;DHT22;11392;57.390;-2.468;2023-12-28T07:33:53;3.70;99.90
22450;DHT22;11392;57.390;-2.468;2023-12-28T07:36:21;3.70;99.90
22450;DHT22;11392;57.390;-2.468;2023-12-28T07:38:48;3.60;99.90
22450;DHT22;11392;57.390;-2.468;2023-12-28T07:41:16;3.70;99.90
22450;DHT22;11392;57.390;-2.468;2023-12-28T07:43:49;3.80;99.90
22450;DHT22;11392;57.390;-2.468;2023-12-28T07:46:16;3.80;99.90
22450;DHT22;11392;57.390;-2.468;2023-12-28T07:48:44;3.90;99.90
22450;DHT22;11392;57.390;-2.468;2023-12-28T07:51:13;3.90;99.90
22450;DHT22;11392;57.390;-2.468;2023-12-28T07:53:40;4.00;99.90
22450;DHT22;11392;57.390;-2.468;2023-12-28T07:56:07;4.00;99.90
22450;DHT22;11392;57.390;-2.468;2023-12-28T07:58:35;4.10;99.90
22450;DHT22;11392;57.390;-2.468;2023-12-28T08:01:04;4.20;99.90
22450;DHT22;11392;57.390;-2.468;2023-12-28T08:03:32;4.10;99.90
22450;DHT22;11392;57.390;-2.468;2023-12-28T08:05:59;4.20;99.90
22450;DHT22;11392;57.390;-2.468;2023-12-28T08:08:26;4.20;99.90
22450;DHT22;11392;57.390;-2.468;2023-12-28T08:10:53;4.30;99.90
22450;DHT22;11392;57.390;-2.468;2023-12-28T08:13:21;4.30;99.90
22450;DHT22;11392;57.390;-2.468;2023-12-28T08:15:48;4.30;99.90
22450;DHT22;11392;57.390;-2.468;2023-12-28T08:18:15;4.20;99.90
22450;DHT22;11392;57.390;-2.468;2023-12-28T08:20:43;4.10;99.90
22450;DHT22;11392;57.390;-2.468;2023-12-28T08:23:10;4.10;99.90
22450;DHT22;11392;57.390;-2.468;2023-12-28T08:25:44;4.10;99.90
22450;DHT22;11392;57.390;-2.468;2023-12-28T08:28:11;4.20;99.90
22450;DHT22;11392;57.390;-2.468;2023-12-28T08:30:38;4.30;99.90
22450;DHT22;11392;57.390;-2.468;2023-12-28T08:33:05;4.30;99.90
22450;DHT22;11392;57.390;-2.468;2023-12-28T08:35:33;4.30;99.90
22450;DHT22;11392;57.390;-2.468;2023-12-28T08:38:00;4.40;99.90
22450;DHT22;11392;57.390;-2.468;2023-12-28T08:40:28;4.40;99.90
22450;DHT22;11392;57.390;-2.468;2023-12-28T08:42:55;4.40;99.90
22450;DHT22;11392;57.390;-2.468;2023-12-28T08:45:22;4.30;99.90
22450;DHT22;11392;57.390;-2.468;2023-12-28T08:47:49;4.30;99.90
22450;DHT22;11392;57.390;-2.468;2023-12-28T08:50:16;4.20;99.90
22450;DHT22;11392;57.390;-2.468;2023-12-28T08:52:43;4.30;99.90
22450;DHT22;11392;57.390;-2.468;2023-12-28T08:55:11;4.30;99.90
22450;DHT22;11392;57.390;-2.468;2023-12-28T08:57:38;4.20;99.90
22450;DHT22;11392;57.390;-2.468;2023-12-28T09:00:10;4.20;99.90
22450;DHT22;11392;57.390;-2.468;2023-12-28T09:02:37;4.20;99.90
22450;DHT22;11392;57.390;-2.468;2023-12-28T09:05:05;4.10;99.90
22450;DHT22;11392;57.390;-2.468;2023-12-28T09:07:32;4.10;99.90
22450;DHT22;11392;57.390;-2.468;2023-12-28T09:09:59;4.10;99.90
22450;DHT22;11392;57.390;-2.468;2023-12-28T09:12:27;4.00;99.90
22450;DHT22;11392;57.390;-2.468;2023-12-28T09:14:54;3.90;99.90
22450;DHT22;11392;57.390;-2.468;2023-12-28T09:17:21;3.80;99.90
22450;DHT22;11392;57.390;-2.468;2023-12-28T09:19:49;3.80;99.90
22450;DHT22;11392;57.390;-2.468;2023-12-28T09:22:17;3.90;99.90
22450;DHT22;11392;57.390;-2.468;2023-12-28T09:24:44;3.90;99.90
22450;DHT22;11392;57.390;-2.468;2023-12-28T09:27:11;4.00;99.90
22450;DHT22;11392;57.390;-2.468;2023-12-28T09:29:38;4.10;99.90
22450;DHT22;11392;57.390;-2.468;2023-12-28T09:32:06;4.20;99.90
22450;DHT22;11392;57.390;-2.468;2023-12-28T09:34:33;4.40;99.90
22450;DHT22;11392;57.390;-2.468;2023-12-28T09:37:00;4.30;99.90
22450;DHT22;11392;57.390;-2.468;2023-12-28T09:39:27;4.40;99.90
22450;DHT22;11392;57.390;-2.468;2023-12-28T09:42:06;4.40;99.90
22450;DHT22;11392;57.390;-2.468;2023-12-28T09:44:38;4.50;99.90
22450;DHT22;11392;57.390;-2.468;2023-12-28T09:47:07;4.60;99.90
22450;DHT22;11392;57.390;-2.468;2023-12-28T09:49:36;4.60;99.90
22450;DHT22;11392;57.390;-2.468;2023-12-28T09:52:04;4.70;99.90
22450;DHT22;11392;57.390;-2.468;2023-12-28T09:54:32;4.80;99.90
22450;DHT22;11392;57.390;-2.468;2023-12-28T09:56:59;4.80;99.90
22450;DHT22;11392;57.390;-2.468;2023-12-28T09:59:27;5.10;99.90
22450;DHT22;11392;57.390;-2.468;2023-12-28T10:01:55;5.20;99.90
22450;DHT22;11392;57.390;-2.468;2023-12-28T10:04:23;5.40;99.90
22450;DHT22;11392;57.390;-2.468;2023-12-28T10:06:50;5.60;99.90
22450;DHT22;11392;57.390;-2.468;2023-12-28T10:09:18;5.60;99.90
22450;DHT22;11392;57.390;-2.468;2023-12-28T10:11:45;5.80;99.90
22450;DHT22;11392;57.390;-2.468;2023-12-28T10:14:12;6.40;99.90
22450;DHT22;11392;57.390;-2.468;2023-12-28T10:16:41;6.70;99.90
22450;DHT22;11392;57.390;-2.468;2023-12-28T10:19:09;6.60;99.90
22450;DHT22;11392;57.390;-2.468;2023-12-28T10:21:39;6.60;99.90
22450;DHT22;11392;57.390;-2.468;2023-12-28T10:24:06;6.60;99.90
22450;DHT22;11392;57.390;-2.468;2023-12-28T10:26:33;6.30;99.90
22450;DHT22;11392;57.390;-2.468;2023-12-28T10:29:00;6.10;99.90
22450;DHT22;11392;57.390;-2.468;2023-12-28T10:31:29;6.10;99.90
22450;DHT22;11392;57.390;-2.468;2023-12-28T10:34:00;6.00;99.90
22450;DHT22;11392;57.390;-2.468;2023-12-28T10:36:30;5.80;99.90
22450;DHT22;11392;57.390;-2.468;2023-12-28T10:39:00;5.90;99.90
22450;DHT22;11392;57.390;-2.468;2023-12-28T10:41:30;6.00;99.90
22450;DHT22;11392;57.390;-2.468;2023-12-28T10:44:03;6.00;99.90
22450;DHT22;11392;57.390;-2.468;2023-12-28T10:46:40;6.00;99.90
22450;DHT22;11392;57.390;-2.468;2023-12-28T10:49:11;5.90;99.90
22450;DHT22;11392;57.390;-2.468;2023-12-28T10:51:44;6.00;99.90
22450;DHT22;11392;57.390;-2.468;2023-12-28T10:54:28;5.90;99.90
22450;DHT22;11392;57.390;-2.468;2023-12-28T10:57:09;6.00;99.90
22450;DHT22;11392;57.390;-2.468;2023-12-28T10:59:52;6.10;99.90
22450;DHT22;11392;57.390;-2.468;2023-12-28T11:02:26;6.10;99.90
22450;DHT22;11392;57.390;-2.468;2023-12-28T11:04:55;6.10;99.90
22450;DHT22;11392;57.390;-2.468;2023-12-28T11:07:23;6.00;99.90
22450;DHT22;11392;57.390;-2.468;2023-12-28T11:09:52;6.10;99.90
22450;DHT22;11392;57.390;-2.468;2023-12-28T11:12:22;6.10;99.90
22450;DHT22;11392;57.390;-2.468;2023-12-28T11:14:50;6.10;99.90
22450;DHT22;11392;57.390;-2.468;2023-12-28T11:17:21;6.20;99.90
22450;DHT22;11392;57.390;-2.468;2023-12-28T11:19:49;6.20;99.90
22450;DHT22;11392;57.390;-2.468;2023-12-28T11:22:16;6.30;99.90
22450;DHT22;11392;57.390;-2.468;2023-12-28T11:24:44;6.30;99.90
22450;DHT22;11392;57.390;-2.468;2023-12-28T11:27:11;6.40;99.90
22450;DHT22;11392;57.390;-2.468;2023-12-28T11:29:41;6.50;99.90
22450;DHT22;11392;57.390;-2.468;2023-12-28T11:32:08;6.60;99.90
22450;DHT22;11392;57.390;-2.468;2023-12-28T11:34:37;6.50;99.90
22450;DHT22;11392;57.390;-2.468;2023-12-28T11:37:15;6.50;99.90
22450;DHT22;11392;57.390;-2.468;2023-12-28T11:39:48;6.50;99.90
22450;DHT22;11392;57.390;-2.468;2023-12-28T11:42:20;6.50;99.90
22450;DHT22;11392;57.390;-2.468;2023-12-28T11:44:48;6.60;99.90
22450;DHT22;11392;57.390;-2.468;2023-12-28T11:47:23;6.50;99.90
22450;DHT22;11392;57.390;-2.468;2023-12-28T11:49:50;6.60;99.90
22450;DHT22;11392;57.390;-2.468;2023-12-28T11:52:23;6.60;99.90
22450;DHT22;11392;57.390;-2.468;2023-12-28T11:54:51;6.70;99.90
22450;DHT22;11392;57.390;-2.468;2023-12-28T11:57:18;6.80;99.90
22450;DHT22;11392;57.390;-2.468;2023-12-28T11:59:46;6.70;99.90
22450;DHT22;11392;57.390;-2.468;2023-12-28T12:02:14;6.70;99.90
22450;DHT22;11392;57.390;-2.468;2023-12-28T12:04:43;6.80;99.90
22450;DHT22;11392;57.390;-2.468;2023-12-28T12:07:10;6.90;99.90
22450;DHT22;11392;57.390;-2.468;2023-12-28T12:09:37;6.90;99.90
22450;DHT22;11392;57.390;-2.468;2023-12-28T12:12:06;7.00;99.90
22450;DHT22;11392;57.390;-2.468;2023-12-28T12:14:34;6.90;99.90
22450;DHT22;11392;57.390;-2.468;2023-12-28T12:17:02;6.90;99.90
22450;DHT22;11392;57.390;-2.468;2023-12-28T12:19:29;6.80;99.90
22450;DHT22;11392;57.390;-2.468;2023-12-28T12:21:56;7.00;99.90
22450;DHT22;11392;57.390;-2.468;2023-12-28T12:24:24;7.30;99.90
22450;DHT22;11392;57.390;-2.468;2023-12-28T12:26:52;7.40;99.90
22450;DHT22;11392;57.390;-2.468;2023-12-28T12:29:19;7.30;99.90
22450;DHT22;11392;57.390;-2.468;2023-12-28T12:31:54;7.10;99.90
22450;DHT22;11392;57.390;-2.468;2023-12-28T12:34:21;7.00;99.90
22450;DHT22;11392;57.390;-2.468;2023-12-28T12:36:49;6.90;99.90
22450;DHT22;11392;57.390;-2.468;2023-12-28T12:39:19;6.90;99.90
22450;DHT22;11392;57.390;-2.468;2023-12-28T12:41:46;6.80;99.90
22450;DHT22;11392;57.390;-2.468;2023-12-28T12:44:14;6.70;99.90
22450;DHT22;11392;57.390;-2.468;2023-12-28T12:46:43;6.90;99.90
22450;DHT22;11392;57.390;-2.468;2023-12-28T12:49:10;6.80;99.90
22450;DHT22;11392;57.390;-2.468;2023-12-28T12:51:38;6.80;99.90
22450;DHT22;11392;57.390;-2.468;2023-12-28T12:54:08;6.90;99.90
22450;DHT22;11392;57.390;-2.468;2023-12-28T12:56:37;6.90;99.90
22450;DHT22;11392;57.390;-2.468;2023-12-28T12:59:12;6.90;99.90
22450;DHT22;11392;57.390;-2.468;2023-12-28T13:01:46;6.80;99.90
22450;DHT22;11392;57.390;-2.468;2023-12-28T13:04:19;6.90;99.90
22450;DHT22;11392;57.390;-2.468;2023-12-28T13:06:46;7.40;99.90
22450;DHT22;11392;57.390;-2.468;2023-12-28T13:09:13;7.30;99.90
22450;DHT22;11392;57.390;-2.468;2023-12-28T13:11:41;7.20;99.90
22450;DHT22;11392;57.390;-2.468;2023-12-28T13:14:08;7.20;99.90
22450;DHT22;11392;57.390;-2.468;2023-12-28T13:16:35;7.70;99.90
22450;DHT22;11392;57.390;-2.468;2023-12-28T13:19:04;7.70;99.90
22450;DHT22;11392;57.390;-2.468;2023-12-28T13:21:31;7.50;99.90
22450;DHT22;11392;57.390;-2.468;2023-12-28T13:23:59;7.40;99.90
22450;DHT22;11392;57.390;-2.468;2023-12-28T13:26:28;7.40;99.90
22450;DHT22;11392;57.390;-2.468;2023-12-28T13:28:55;7.30;99.90
22450;DHT22;11392;57.390;-2.468;2023-12-28T13:31:23;7.20;99.90
22450;DHT22;11392;57.390;-2.468;2023-12-28T13:33:52;7.20;99.90
22450;DHT22;11392;57.390;-2.468;2023-12-28T13:36:19;7.20;99.90
22450;DHT22;11392;57.390;-2.468;2023-12-28T13:38:46;7.20;99.90
22450;DHT22;11392;57.390;-2.468;2023-12-28T13:41:15;7.20;99.90
22450;DHT22;11392;57.390;-2.468;2023-12-28T13:43:42;7.20;99.90
22450;DHT22;11392;57.390;-2.468;2023-12-28T13:46:09;7.20;99.90
22450;DHT22;11392;57.390;-2.468;2023-12-28T13:48:36;7.20;99.90
22450;DHT22;11392;57.390;-2.468;2023-12-28T13:51:06;7.20;99.90
22450;DHT22;11392;57.390;-2.468;2023-12-28T13:53:33;7.10;99.90
22450;DHT22;11392;57.390;-2.468;2023-12-28T13:56:08;7.00;99.90
22450;DHT22;11392;57.390;-2.468;2023-12-28T13:58:37;7.00;99.90
22450;DHT22;11392;57.390;-2.468;2023-12-28T14:01:05;7.10;99.90
22450;DHT22;11392;57.390;-2.468;2023-12-28T14:03:32;7.00;99.90
22450;DHT22;11392;57.390;-2.468;2023-12-28T14:06:00;6.90;99.90
22450;DHT22;11392;57.390;-2.468;2023-12-28T14:08:27;6.90;99.90
22450;DHT22;11392;57.390;-2.468;2023-12-28T14:10:54;6.90;99.90
22450;DHT22;11392;57.390;-2.468;2023-12-28T14:13:21;6.90;99.90
22450;DHT22;11392;57.390;-2.468;2023-12-28T14:15:48;6.90;99.90
22450;DHT22;11392;57.390;-2.468;2023-12-28T14:18:16;6.80;99.90
22450;DHT22;11392;57.390;-2.468;2023-12-28T14:20:43;6.80;99.90
22450;DHT22;11392;57.390;-2.468;2023-12-28T14:23:10;6.70;99.90
22450;DHT22;11392;57.390;-2.468;2023-12-28T14:25:39;6.80;99.90
22450;DHT22;11392;57.390;-2.468;2023-12-28T14:28:07;6.80;99.90
22450;DHT22;11392;57.390;-2.468;2023-12-28T14:30:34;6.80;99.90
22450;DHT22;11392;57.390;-2.468;2023-12-28T14:33:02;6.80;99.90
22450;DHT22;11392;57.390;-2.468;2023-12-28T14:35:30;6.70;99.90
22450;DHT22;11392;57.390;-2.468;2023-12-28T14:37:57;6.80;99.90
22450;DHT22;11392;57.390;-2.468;2023-12-28T14:40:25;6.80;99.90
22450;DHT22;11392;57.390;-2.468;2023-12-28T14:42:52;6.70;99.90
22450;DHT22;11392;57.390;-2.468;2023-12-28T14:45:19;6.70;99.90
22450;DHT22;11392;57.390;-2.468;2023-12-28T14:47:46;6.70;99.90
22450;DHT22;11392;57.390;-2.468;2023-12-28T14:50:13;6.70;99.90
22450;DHT22;11392;57.390;-2.468;2023-12-28T14:52:40;6.70;99.90
22450;DHT22;11392;57.390;-2.468;2023-12-28T14:55:10;6.80;99.90
22450;DHT22;11392;57.390;-2.468;2023-12-28T14:57:37;6.80;99.90
22450;DHT22;11392;57.390;-2.468;2023-12-28T15:00:05;6.70;99.90
22450;DHT22;11392;57.390;-2.468;2023-12-28T15:02:32;6.60;99.90
22450;DHT22;11392;57.390;-2.468;2023-12-28T15:05:00;6.60;99.90
22450;DHT22;11392;57.390;-2.468;2023-12-28T15:07:28;6.50;99.90
22450;DHT22;11392;57.390;-2.468;2023-12-28T15:09:56;6.50;99.90
22450;DHT22;11392;57.390;-2.468;2023-12-28T15:12:25;6.50;99.90
22450;DHT22;11392;57.390;-2.468;2023-12-28T15:14:52;6.40;99.90
22450;DHT22;11392;57.390;-2.468;2023-12-28T15:17:20;6.30;99.90
22450;DHT22;11392;57.390;-2.468;2023-12-28T15:19:49;6.30;99.90
22450;DHT22;11392;57.390;-2.468;2023-12-28T15:22:16;6.30;99.90
22450;DHT22;11392;57.390;-2.468;2023-12-28T15:24:45;6.20;99.90
22450;DHT22;11392;57.390;-2.468;2023-12-28T15:27:12;6.20;99.90
22450;DHT22;11392;57.390;-2.468;2023-12-28T15:29:40;6.20;99.90
22450;DHT22;11392;57.390;-2.468;2023-12-28T15:32:07;6.10;99.90
22450;DHT22;11392;57.390;-2.468;2023-12-28T15:34:34;6.10;99.90
22450;DHT22;11392;57.390;-2.468;2023-12-28T15:37:01;6.10;99.90